createdAt,value
2017-08-27T00:00:26.135Z,25.47
2017-08-27T00:02:55.188Z,25.97
2017-08-27T00:05:24.276Z,25.13
2017-08-27T00:07:53.333Z,26.63
2017-08-27T00:10:22.488Z,26.57
2017-08-27T00:12:51.538Z,25.13
2017-08-27T00:15:20.630Z,27.23
2017-08-27T00:17:49.700Z,27.70
2017-08-27T00:20:18.764Z,24.90
2017-08-27T00:22:47.853Z,22.47
2017-08-27T00:25:16.948Z,24.50
2017-08-27T00:27:46.021Z,26.47
2017-08-27T00:30:15.129Z,25.77
2017-08-27T00:32:44.231Z,24.40
2017-08-27T00:35:13.309Z,25.60
2017-08-27T00:37:42.387Z,23.03
2017-08-27T00:40:11.565Z,25.10
2017-08-27T00:42:40.642Z,24.97
2017-08-27T00:45:10.550Z,26.80
2017-08-27T00:47:39.625Z,24.73
2017-08-27T00:50:08.687Z,26.27
2017-08-27T00:52:37.765Z,23.93
2017-08-27T00:55:06.853Z,25.07
2017-08-27T00:57:35.935Z,23.80
2017-08-27T01:00:05.765Z,24.03
2017-08-27T01:02:34.856Z,24.03
2017-08-27T01:05:03.945Z,23.17
2017-08-27T01:07:33.019Z,23.40
2017-08-27T01:10:02.111Z,23.00
2017-08-27T01:12:31.160Z,25.43
2017-08-27T01:15:01.364Z,24.37
2017-08-27T01:17:30.497Z,25.23
2017-08-27T01:19:59.585Z,22.83
2017-08-27T01:22:28.671Z,22.63
2017-08-27T01:24:57.712Z,22.97
2017-08-27T01:27:26.787Z,23.17
2017-08-27T01:29:55.851Z,23.23
2017-08-27T01:32:24.919Z,23.90
2017-08-27T01:34:53.993Z,22.77
2017-08-27T01:37:23.309Z,23.30
2017-08-27T01:39:52.377Z,21.57
2017-08-27T01:42:21.420Z,20.80
2017-08-27T01:44:50.509Z,22.50
2017-08-27T01:47:19.561Z,21.37
2017-08-27T01:49:48.984Z,20.83
2017-08-27T01:52:18.035Z,21.23
2017-08-27T01:54:47.366Z,23.70
2017-08-27T01:57:16.444Z,23.67
2017-08-27T01:59:45.643Z,25.13
2017-08-27T02:02:14.728Z,23.40
2017-08-27T02:04:43.795Z,25.70
2017-08-27T02:07:12.833Z,27.80
2017-08-27T02:09:41.911Z,26.53
2017-08-27T02:12:10.978Z,29.67
2017-08-27T02:14:40.060Z,24.90
2017-08-27T02:17:09.157Z,28.07
2017-08-27T02:19:38.200Z,28.07
2017-08-27T02:22:07.647Z,27.93
2017-08-27T02:24:36.695Z,29.53
2017-08-27T02:27:06.156Z,29.40
2017-08-27T02:29:35.963Z,31.10
2017-08-27T02:32:05.035Z,30.13
2017-08-27T02:34:34.088Z,30.90
2017-08-27T02:37:03.204Z,31.60
2017-08-27T02:39:32.649Z,33.50
2017-08-27T02:42:01.744Z,33.47
2017-08-27T02:44:30.795Z,36.30
2017-08-27T02:46:59.859Z,36.50
2017-08-27T02:49:29.006Z,34.50
2017-08-27T02:51:58.074Z,41.17
2017-08-27T02:54:27.264Z,37.63
2017-08-27T02:56:57.272Z,37.60
2017-08-27T02:59:26.359Z,37.83
2017-08-27T03:01:55.423Z,39.47
2017-08-27T03:04:24.523Z,38.57
2017-08-27T03:06:54.349Z,42.13
2017-08-27T03:09:23.409Z,42.17
2017-08-27T03:11:52.465Z,39.80
2017-08-27T03:14:21.534Z,40.57
2017-08-27T03:16:51.375Z,42.87
2017-08-27T03:19:20.497Z,44.37
2017-08-27T03:21:49.602Z,42.20
2017-08-27T03:24:18.688Z,43.33
2017-08-27T03:26:47.743Z,42.00
2017-08-27T03:29:16.835Z,42.60
2017-08-27T03:31:45.903Z,34.70
2017-08-27T03:34:15.025Z,39.53
2017-08-27T03:36:44.204Z,37.47
2017-08-27T03:39:14.056Z,37.47
2017-08-27T03:41:43.123Z,37.97
2017-08-27T03:44:12.200Z,36.47
2017-08-27T03:46:41.290Z,40.10
2017-08-27T03:49:10.367Z,45.60
2017-08-27T03:51:39.415Z,42.30
2017-08-27T03:54:08.486Z,44.60
2017-08-27T03:56:38.315Z,42.20
2017-08-27T03:59:07.391Z,44.63
2017-08-27T04:01:37.230Z,43.33
2017-08-27T04:04:06.301Z,40.70
2017-08-27T04:06:36.169Z,44.60
2017-08-27T04:09:05.227Z,44.90
2017-08-27T04:11:34.300Z,41.73
2017-08-27T04:14:03.387Z,46.23
2017-08-27T04:16:32.484Z,44.53
2017-08-27T04:19:01.547Z,51.00
2017-08-27T04:21:30.636Z,44.77
2017-08-27T04:23:59.732Z,49.17
2017-08-27T04:26:28.780Z,42.93
2017-08-27T04:28:57.861Z,44.27
2017-08-27T04:31:26.911Z,47.23
2017-08-27T04:33:55.975Z,43.10
2017-08-27T04:36:25.051Z,40.93
2017-08-27T04:38:54.865Z,42.57
2017-08-27T04:41:24.695Z,44.10
2017-08-27T04:43:53.785Z,42.60
2017-08-27T04:46:22.869Z,45.20
2017-08-27T04:48:52.703Z,44.90
2017-08-27T04:51:21.764Z,45.30
2017-08-27T04:53:50.876Z,40.63
2017-08-27T04:56:19.939Z,43.60
2017-08-27T04:58:49.020Z,47.00
2017-08-27T05:01:18.091Z,44.40
2017-08-27T05:03:47.188Z,43.73
2017-08-27T05:06:16.238Z,47.03
2017-08-27T05:08:45.312Z,48.70
2017-08-27T05:11:14.384Z,47.00
2017-08-27T05:13:43.457Z,43.13
2017-08-27T05:16:12.540Z,42.87
2017-08-27T05:18:42.535Z,45.10
2017-08-27T05:21:11.608Z,46.73
2017-08-27T05:23:40.677Z,45.10
2017-08-27T05:26:09.792Z,44.57
2017-08-27T05:28:39.059Z,45.57
2017-08-27T05:31:08.144Z,47.37
2017-08-27T05:33:37.280Z,45.00
2017-08-27T05:36:06.623Z,45.73
2017-08-27T05:38:35.660Z,44.37
2017-08-27T05:41:04.948Z,50.37
2017-08-27T05:43:34.005Z,47.83
2017-08-27T05:46:03.849Z,48.67
2017-08-27T05:48:32.904Z,50.90
2017-08-27T05:51:01.983Z,49.07
2017-08-27T05:53:31.094Z,46.33
2017-08-27T05:56:00.125Z,47.37
2017-08-27T05:58:29.218Z,50.00
2017-08-27T06:00:58.296Z,44.93
2017-08-27T06:03:27.367Z,47.00
2017-08-27T06:05:56.448Z,41.77
2017-08-27T06:08:25.496Z,41.67
2017-08-27T06:10:54.561Z,41.40
2017-08-27T06:13:23.626Z,41.97
2017-08-27T06:15:52.741Z,40.93
2017-08-27T06:18:21.818Z,36.17
2017-08-27T06:20:51.098Z,36.90
2017-08-27T06:23:20.196Z,38.77
2017-08-27T06:25:49.253Z,42.03
2017-08-27T06:28:18.334Z,42.13
2017-08-27T06:30:47.397Z,39.73
2017-08-27T06:33:16.459Z,40.10
2017-08-27T06:35:45.563Z,42.93
2017-08-27T06:38:14.604Z,41.10
2017-08-27T06:40:43.684Z,41.03
2017-08-27T06:43:12.740Z,40.03
2017-08-27T06:45:41.831Z,41.73
2017-08-27T06:48:10.905Z,41.37
2017-08-27T06:50:39.975Z,45.47
2017-08-27T06:53:09.162Z,44.37
2017-08-27T06:55:38.232Z,45.23
2017-08-27T06:58:07.640Z,46.40
2017-08-27T07:00:36.711Z,45.10
2017-08-27T07:03:05.828Z,44.60
2017-08-27T07:05:35.186Z,39.90
2017-08-27T07:08:04.256Z,42.07
2017-08-27T07:10:33.321Z,41.13
2017-08-27T07:13:02.396Z,37.30
2017-08-27T07:15:31.572Z,35.13
2017-08-27T07:18:00.644Z,31.87
2017-08-27T07:20:29.700Z,37.63
2017-08-27T07:22:58.817Z,36.40
2017-08-27T07:25:27.924Z,42.13
2017-08-27T07:27:56.971Z,44.27
2017-08-27T07:30:26.071Z,38.97
2017-08-27T07:32:55.125Z,35.10
2017-08-27T07:35:24.217Z,31.97
2017-08-27T07:37:53.289Z,31.70
2017-08-27T07:40:22.340Z,27.93
2017-08-27T07:42:51.415Z,29.40
2017-08-27T07:45:20.826Z,29.60
2017-08-27T07:47:50.656Z,27.60
2017-08-27T07:50:19.725Z,23.80
2017-08-27T07:52:48.797Z,24.83
2017-08-27T07:55:17.854Z,30.80
2017-08-27T07:57:46.915Z,27.30
2017-08-27T08:00:15.992Z,28.50
2017-08-27T08:02:45.091Z,27.23
2017-08-27T08:05:15.000Z,26.40
2017-08-27T08:07:44.222Z,28.60
2017-08-27T08:10:13.283Z,24.97
2017-08-27T08:12:42.333Z,22.30
2017-08-27T08:15:11.447Z,21.63
2017-08-27T08:17:40.589Z,27.63
2017-08-27T08:20:10.004Z,22.47
2017-08-27T08:22:39.068Z,21.70
2017-08-27T08:25:08.748Z,21.37
2017-08-27T08:27:37.838Z,18.37
2017-08-27T08:30:06.971Z,18.80
2017-08-27T08:32:36.040Z,22.13
2017-08-27T08:35:05.133Z,14.93
2017-08-27T08:37:34.196Z,16.00
2017-08-27T08:40:03.276Z,16.30
2017-08-27T08:42:32.324Z,19.77
2017-08-27T08:45:01.388Z,13.30
2017-08-27T08:47:30.448Z,14.80
2017-08-27T08:49:59.501Z,17.97
2017-08-27T08:52:28.607Z,20.27
2017-08-27T08:54:57.706Z,15.30
2017-08-27T08:57:26.805Z,18.30
2017-08-27T08:59:55.872Z,19.90
2017-08-27T09:02:24.949Z,18.30
2017-08-27T09:04:54.025Z,13.93
2017-08-27T09:07:23.085Z,15.67
2017-08-27T09:09:52.132Z,16.03
2017-08-27T09:12:21.224Z,16.70
2017-08-27T09:14:50.283Z,14.00
2017-08-27T09:17:19.359Z,15.43
2017-08-27T09:19:48.405Z,11.00
2017-08-27T09:22:18.266Z,13.23
2017-08-27T09:24:47.339Z,12.00
2017-08-27T09:27:16.422Z,12.57
2017-08-27T09:29:45.494Z,11.30
2017-08-27T09:32:14.555Z,10.33
2017-08-27T09:34:43.611Z,8.53
2017-08-27T09:37:12.035Z,8.87
2017-08-27T09:39:40.954Z,11.07
2017-08-27T09:42:10.292Z,10.73
2017-08-27T09:44:39.359Z,8.43
2017-08-27T09:47:08.438Z,11.30
2017-08-27T09:49:37.517Z,8.30
2017-08-27T09:52:06.568Z,8.77
2017-08-27T09:54:35.620Z,12.67
2017-08-27T09:57:04.753Z,8.90
2017-08-27T09:59:33.786Z,8.33
2017-08-27T10:02:02.864Z,4.93
2017-08-27T10:04:32.175Z,4.17
2017-08-27T10:07:02.132Z,4.90
2017-08-27T10:09:31.182Z,5.33
2017-08-27T10:12:00.239Z,5.10
2017-08-27T10:14:29.472Z,4.30
2017-08-27T10:16:58.532Z,5.03
2017-08-27T10:19:27.625Z,6.77
2017-08-27T10:21:56.678Z,7.53
2017-08-27T10:24:25.725Z,7.50
2017-08-27T10:26:55.077Z,4.77
2017-08-27T10:29:24.136Z,5.20
2017-08-27T10:31:53.227Z,5.97
2017-08-27T10:34:22.297Z,6.63
2017-08-27T10:36:51.370Z,5.60
2017-08-27T10:39:20.442Z,7.40
2017-08-27T10:41:49.893Z,6.20
2017-08-27T10:44:18.978Z,8.10
2017-08-27T10:46:48.174Z,6.77
2017-08-27T10:49:17.244Z,6.97
2017-08-27T10:51:46.324Z,4.43
2017-08-27T10:54:15.372Z,5.80
2017-08-27T10:56:44.556Z,4.87
2017-08-27T10:59:13.634Z,4.20
2017-08-27T11:01:42.753Z,5.57
2017-08-27T11:04:11.802Z,3.93
2017-08-27T11:06:40.855Z,4.70
2017-08-27T11:09:09.947Z,4.03
2017-08-27T11:11:38.988Z,3.57
2017-08-27T11:14:08.048Z,2.93
2017-08-27T11:16:37.112Z,3.93
2017-08-27T11:19:06.188Z,3.53
2017-08-27T11:21:35.207Z,5.10
2017-08-27T11:24:04.300Z,10.33
2017-08-27T11:26:33.370Z,3.33
2017-08-27T11:29:02.430Z,3.30
2017-08-27T11:31:31.505Z,2.50
2017-08-27T11:34:00.560Z,3.27
2017-08-27T11:36:29.617Z,3.73
2017-08-27T11:38:58.671Z,2.87
2017-08-27T11:41:27.732Z,3.90
2017-08-27T11:43:56.788Z,3.10
2017-08-27T11:46:25.862Z,3.37
2017-08-27T11:48:54.969Z,3.73
2017-08-27T11:51:23.996Z,3.30
2017-08-27T11:53:53.037Z,4.27
2017-08-27T11:56:22.252Z,4.90
2017-08-27T11:58:51.302Z,7.50
2017-08-27T12:01:20.366Z,4.40
2017-08-27T12:03:49.475Z,4.60
2017-08-27T12:06:18.577Z,5.87
2017-08-27T12:08:47.919Z,4.27
2017-08-27T12:11:16.983Z,3.63
2017-08-27T12:13:46.064Z,4.30
2017-08-27T12:16:15.192Z,3.80
2017-08-27T12:18:44.306Z,3.23
2017-08-27T12:21:13.343Z,3.70
2017-08-27T12:23:42.401Z,3.63
2017-08-27T12:26:11.455Z,3.67
2017-08-27T12:28:40.555Z,3.47
2017-08-27T12:31:09.628Z,3.77
2017-08-27T12:33:38.687Z,6.47
2017-08-27T12:36:07.780Z,5.50
2017-08-27T12:38:36.812Z,3.93
2017-08-27T12:41:05.915Z,3.13
2017-08-27T12:43:35.024Z,5.50
2017-08-27T12:46:04.092Z,3.13
2017-08-27T12:48:33.147Z,6.90
2017-08-27T12:51:02.211Z,3.80
2017-08-27T12:53:31.272Z,8.40
2017-08-27T12:56:00.347Z,4.87
2017-08-27T12:58:29.396Z,4.07
2017-08-27T13:00:58.499Z,4.33
2017-08-27T13:03:27.614Z,3.43
2017-08-27T13:05:56.698Z,5.10
2017-08-27T13:08:25.771Z,3.53
2017-08-27T13:10:54.864Z,3.90
2017-08-27T13:13:23.977Z,3.90
2017-08-27T13:15:53.057Z,3.80
2017-08-27T13:18:22.129Z,2.90
2017-08-27T13:20:51.189Z,3.10
2017-08-27T13:23:20.507Z,3.50
2017-08-27T13:25:49.574Z,3.50
2017-08-27T13:28:18.616Z,3.87
2017-08-27T13:30:47.707Z,3.80
2017-08-27T13:33:16.744Z,3.20
2017-08-27T13:35:45.793Z,2.97
2017-08-27T13:38:14.855Z,3.90
2017-08-27T13:40:43.902Z,3.50
2017-08-27T13:43:13.000Z,3.83
2017-08-27T13:45:43.089Z,3.30
2017-08-27T13:48:12.169Z,4.97
2017-08-27T13:50:41.234Z,3.83
2017-08-27T13:53:10.328Z,4.40
2017-08-27T13:55:39.411Z,4.00
2017-08-27T13:58:08.465Z,3.40
2017-08-27T14:00:37.545Z,4.50
2017-08-27T14:03:06.892Z,3.23
2017-08-27T14:05:36.045Z,3.83
2017-08-27T14:08:05.124Z,3.57
2017-08-27T14:10:34.196Z,3.10
2017-08-27T14:13:03.243Z,4.20
2017-08-27T14:15:32.443Z,2.80
2017-08-27T14:18:01.636Z,3.00
2017-08-27T14:20:30.691Z,3.03
2017-08-27T14:22:59.760Z,3.63
2017-08-27T14:25:28.875Z,4.10
2017-08-27T14:27:58.027Z,3.10
2017-08-27T14:30:27.405Z,3.17
2017-08-27T14:32:56.424Z,4.13
2017-08-27T14:35:25.506Z,6.23
2017-08-27T14:37:54.560Z,3.20
2017-08-27T14:40:23.857Z,4.03
2017-08-27T14:42:52.923Z,3.03
2017-08-27T14:45:22.013Z,3.93
2017-08-27T14:47:51.085Z,6.27
2017-08-27T14:50:21.033Z,3.50
2017-08-27T14:52:50.140Z,3.63
2017-08-27T14:55:19.807Z,4.27
2017-08-27T14:57:48.907Z,3.30
2017-08-27T15:00:18.095Z,4.40
2017-08-27T15:02:47.133Z,3.30
2017-08-27T15:05:16.457Z,3.27
2017-08-27T15:07:45.480Z,3.37
2017-08-27T15:10:14.566Z,3.00
2017-08-27T15:12:43.619Z,3.30
2017-08-27T15:15:13.332Z,3.03
2017-08-27T15:17:42.384Z,3.20
2017-08-27T15:20:11.442Z,4.50
2017-08-27T15:22:40.547Z,2.67
2017-08-27T15:25:09.619Z,2.73
2017-08-27T15:27:38.660Z,3.13
2017-08-27T15:30:08.010Z,3.40
2017-08-27T15:32:37.060Z,4.57
2017-08-27T15:35:06.147Z,3.30
2017-08-27T15:37:35.232Z,3.50
2017-08-27T15:40:04.342Z,3.37
2017-08-27T15:42:33.408Z,4.07
2017-08-27T15:45:02.480Z,3.10
2017-08-27T15:47:31.537Z,2.77
2017-08-27T15:50:00.580Z,5.70
2017-08-27T15:52:29.664Z,6.90
2017-08-27T15:54:58.764Z,4.30
2017-08-27T15:57:27.875Z,2.70
2017-08-27T15:59:56.913Z,3.10
2017-08-27T16:02:25.997Z,3.00
2017-08-27T16:04:55.273Z,2.63
2017-08-27T16:07:24.357Z,2.90
2017-08-27T16:09:53.490Z,3.60
2017-08-27T16:12:22.524Z,3.30
2017-08-27T16:14:51.600Z,3.70
2017-08-27T16:17:20.673Z,3.50
2017-08-27T16:19:49.757Z,3.00
2017-08-27T16:22:18.825Z,4.37
2017-08-27T16:24:47.879Z,3.10
2017-08-27T16:27:16.948Z,6.43
2017-08-27T16:29:45.987Z,3.20
2017-08-27T16:32:15.053Z,5.20
2017-08-27T16:34:44.395Z,4.53
2017-08-27T16:37:13.446Z,4.47
2017-08-27T16:39:42.595Z,3.20
2017-08-27T16:42:11.696Z,3.10
2017-08-27T16:44:40.752Z,4.30
2017-08-27T16:47:27.676Z,6.00
2017-08-27T16:49:56.740Z,6.57
2017-08-27T16:52:25.813Z,10.50
2017-08-27T16:54:55.099Z,28.07
2017-08-27T16:57:24.211Z,10.00
2017-08-27T16:59:53.284Z,2.80
2017-08-27T17:02:22.355Z,4.77
2017-08-27T17:04:51.425Z,5.80
2017-08-27T17:07:20.508Z,4.47
2017-08-27T17:09:49.569Z,3.93
2017-08-27T17:12:18.629Z,3.40
2017-08-27T17:14:47.750Z,3.20
2017-08-27T17:17:16.830Z,3.37
2017-08-27T17:19:45.873Z,4.10
2017-08-27T17:22:14.947Z,5.43
2017-08-27T17:24:44.007Z,4.40
2017-08-27T17:27:13.093Z,2.10
2017-08-27T17:29:42.173Z,2.73
2017-08-27T17:32:11.368Z,2.67
2017-08-27T17:34:40.435Z,4.43
2017-08-27T17:37:09.530Z,4.67
2017-08-27T17:39:38.619Z,3.33
2017-08-27T17:42:07.685Z,2.77
2017-08-27T17:44:36.746Z,3.60
2017-08-27T17:47:05.903Z,2.20
2017-08-27T17:49:34.982Z,2.37
2017-08-27T17:52:04.120Z,2.90
2017-08-27T17:54:33.180Z,2.40
2017-08-27T17:57:02.269Z,1.97
2017-08-27T17:59:31.321Z,3.30
2017-08-27T18:02:00.424Z,2.23
2017-08-27T18:04:29.476Z,2.80
2017-08-27T18:06:58.556Z,2.63
2017-08-27T18:09:27.643Z,2.10
2017-08-27T18:11:56.696Z,2.70
2017-08-27T18:14:25.785Z,3.33
2017-08-27T18:16:54.859Z,5.20
2017-08-27T18:19:23.908Z,3.00
2017-08-27T18:21:52.951Z,3.93
2017-08-27T18:24:22.045Z,3.50
2017-08-27T18:26:51.132Z,3.67
2017-08-27T18:29:20.196Z,2.27
2017-08-27T18:31:49.269Z,2.70
2017-08-27T18:34:18.636Z,3.10
2017-08-27T18:36:47.680Z,2.07
2017-08-27T18:39:16.725Z,2.53
2017-08-27T18:41:45.837Z,2.83
2017-08-27T18:44:14.928Z,2.50
2017-08-27T18:46:44.004Z,2.80
2017-08-27T18:49:13.091Z,3.33
2017-08-27T18:51:42.139Z,3.03
2017-08-27T18:54:11.232Z,3.77
2017-08-27T18:56:40.306Z,3.80
2017-08-27T18:59:09.392Z,2.87
2017-08-27T19:01:38.459Z,6.30
2017-08-27T19:04:07.509Z,2.93
2017-08-27T19:06:36.572Z,2.90
2017-08-27T19:09:05.661Z,3.97
2017-08-27T19:11:34.761Z,4.33
2017-08-27T19:14:03.850Z,5.27
2017-08-27T19:16:32.925Z,5.50
2017-08-27T19:19:02.005Z,5.13
2017-08-27T19:21:31.095Z,3.70
2017-08-27T19:24:00.171Z,4.23
2017-08-27T19:26:29.615Z,3.40
2017-08-27T19:28:58.871Z,3.13
2017-08-27T19:31:27.920Z,3.90
2017-08-27T19:33:56.988Z,3.60
2017-08-27T19:36:26.068Z,4.20
2017-08-27T19:38:55.132Z,7.23
2017-08-27T19:41:24.201Z,7.13
2017-08-27T19:43:53.272Z,4.00
2017-08-27T19:46:22.346Z,3.30
2017-08-27T19:48:51.436Z,3.40
2017-08-27T19:51:20.477Z,5.03
2017-08-27T19:53:49.539Z,4.43
2017-08-27T19:56:18.645Z,3.67
2017-08-27T19:58:47.695Z,3.60
2017-08-27T20:01:16.786Z,4.27
2017-08-27T20:03:45.869Z,4.93
2017-08-27T20:06:14.967Z,6.03
2017-08-27T20:08:44.026Z,4.87
2017-08-27T20:11:13.185Z,6.03
2017-08-27T20:13:42.225Z,4.93
2017-08-27T20:16:11.372Z,5.00
2017-08-27T20:18:40.604Z,6.37
2017-08-27T20:21:09.671Z,5.10
2017-08-27T20:23:38.757Z,4.63
2017-08-27T20:26:07.847Z,3.20
2017-08-27T20:28:36.908Z,3.57
2017-08-27T20:31:06.136Z,4.37
2017-08-27T20:33:35.215Z,4.70
2017-08-27T20:36:04.279Z,3.17
2017-08-27T20:38:33.594Z,4.03
2017-08-27T20:41:02.669Z,3.70
2017-08-27T20:43:31.746Z,5.47
2017-08-27T20:46:00.790Z,4.17
2017-08-27T20:48:29.837Z,4.00
2017-08-27T20:50:58.914Z,3.40
2017-08-27T20:53:27.978Z,4.37
2017-08-27T20:55:57.044Z,3.03
2017-08-27T20:58:26.145Z,3.50
2017-08-27T21:00:55.195Z,4.60
2017-08-27T21:03:24.263Z,4.23
2017-08-27T21:05:53.372Z,5.53
2017-08-27T21:08:22.428Z,6.67
2017-08-27T21:10:51.469Z,4.20
2017-08-27T21:13:20.558Z,4.30
2017-08-27T21:15:49.775Z,5.67
2017-08-27T21:18:18.880Z,3.43
2017-08-27T21:20:47.944Z,4.27
2017-08-27T21:23:17.045Z,3.40
2017-08-27T21:25:46.091Z,4.90
2017-08-27T21:28:15.154Z,4.20
2017-08-27T21:30:44.209Z,5.97
2017-08-27T21:33:13.288Z,6.23
2017-08-27T21:35:42.368Z,3.33
2017-08-27T21:38:11.471Z,4.30
2017-08-27T21:40:40.520Z,4.07
2017-08-27T21:43:09.610Z,3.50
2017-08-27T21:45:38.677Z,3.03
2017-08-27T21:48:07.743Z,5.20
2017-08-27T21:50:36.832Z,4.10
2017-08-27T21:53:05.944Z,3.27
2017-08-27T21:55:35.067Z,3.43
2017-08-27T21:58:04.453Z,4.53
2017-08-27T22:00:36.484Z,3.37
2017-08-27T22:03:05.573Z,3.07
2017-08-27T22:05:34.628Z,4.30
2017-08-27T22:08:03.739Z,3.60
2017-08-27T22:10:32.769Z,4.43
2017-08-27T22:13:01.821Z,4.07
2017-08-27T22:15:30.905Z,3.13
2017-08-27T22:17:59.956Z,4.80
2017-08-27T22:20:29.014Z,3.03
2017-08-27T22:22:58.098Z,3.70
2017-08-27T22:25:27.150Z,3.30
2017-08-27T22:27:56.196Z,3.57
2017-08-27T22:30:25.281Z,4.63
2017-08-27T22:32:54.321Z,3.83
2017-08-27T22:35:23.674Z,3.83
2017-08-27T22:37:52.735Z,3.97
2017-08-27T22:40:21.932Z,3.73
2017-08-27T22:42:51.027Z,4.03
2017-08-27T22:45:20.134Z,4.13
2017-08-27T22:47:49.173Z,5.03
2017-08-27T22:50:18.436Z,5.23
2017-08-27T22:52:47.491Z,4.80
2017-08-27T22:55:16.661Z,4.77
2017-08-27T22:57:45.736Z,4.57
2017-08-27T23:00:14.873Z,6.97
2017-08-27T23:02:43.931Z,4.73
2017-08-27T23:05:12.995Z,4.60
2017-08-27T23:07:42.047Z,4.30
2017-08-27T23:10:11.161Z,4.80
2017-08-27T23:12:40.204Z,5.97
2017-08-27T23:15:09.279Z,4.20
2017-08-27T23:17:38.376Z,4.90
2017-08-27T23:20:07.429Z,5.17
2017-08-27T23:22:36.509Z,4.43
2017-08-27T23:25:05.612Z,4.67
2017-08-27T23:27:34.674Z,4.43
2017-08-27T23:30:03.764Z,4.93
2017-08-27T23:32:32.812Z,7.40
2017-08-27T23:35:02.048Z,5.37
2017-08-27T23:37:31.091Z,5.23
2017-08-27T23:40:00.259Z,11.30
2017-08-27T23:42:29.308Z,4.97
2017-08-27T23:44:58.365Z,5.87
2017-08-27T23:47:27.445Z,6.90
2017-08-27T23:49:56.500Z,6.70
2017-08-27T23:52:25.556Z,7.50
2017-08-27T23:54:54.718Z,7.20
2017-08-27T23:57:23.788Z,6.17
2017-08-27T23:59:52.844Z,6.20
